createdAt,value
2019-06-10T00:00:37.868Z,5.40
2019-06-10T00:03:35.909Z,5.90
2019-06-10T00:06:33.659Z,6.13
2019-06-10T00:09:31.644Z,5.87
2019-06-10T00:12:31.417Z,5.90
2019-06-10T00:15:31.363Z,7.47
2019-06-10T00:18:38.422Z,6.50
2019-06-10T00:21:30.673Z,6.37
2019-06-10T00:24:28.390Z,7.03
2019-06-10T00:27:26.652Z,5.60
2019-06-10T00:30:24.415Z,5.80
2019-06-10T00:33:23.040Z,5.27
2019-06-10T00:36:21.658Z,6.30
2019-06-10T00:39:22.140Z,6.23
2019-06-10T00:42:21.437Z,6.80
2019-06-10T00:45:21.407Z,6.53
2019-06-10T00:48:26.260Z,5.63
2019-06-10T00:51:20.789Z,5.47
2019-06-10T00:54:18.029Z,6.57
2019-06-10T00:57:16.052Z,6.07
2019-06-10T01:00:24.939Z,6.70
2019-06-10T01:03:15.320Z,6.30
2019-06-10T01:06:15.064Z,5.80
2019-06-10T01:09:14.831Z,5.70
2019-06-10T01:12:14.765Z,6.20
2019-06-10T01:15:15.182Z,6.00
2019-06-10T01:21:13.932Z,6.17
2019-06-10T01:24:14.552Z,5.80
2019-06-10T01:27:13.575Z,5.83
2019-06-10T01:30:18.682Z,6.40
2019-06-10T01:33:14.401Z,6.17
2019-06-10T01:36:13.392Z,6.00
2019-06-10T01:39:12.026Z,6.60
2019-06-10T01:42:12.573Z,6.53
2019-06-10T01:45:11.530Z,6.10
2019-06-10T01:48:12.036Z,6.93
2019-06-10T01:51:13.473Z,6.53
2019-06-10T01:54:15.124Z,6.83
2019-06-10T01:57:13.915Z,5.83
2019-06-10T02:00:17.162Z,6.43
2019-06-10T02:03:16.298Z,6.30
2019-06-10T02:06:15.819Z,6.40
2019-06-10T02:09:13.434Z,6.60
2019-06-10T02:12:12.855Z,7.27
2019-06-10T02:15:12.580Z,6.83
2019-06-10T02:18:13.529Z,6.60
2019-06-10T02:21:14.292Z,6.70
2019-06-10T02:24:12.758Z,5.63
2019-06-10T02:27:12.865Z,6.47
2019-06-10T02:30:22.794Z,4.87
2019-06-10T02:33:12.903Z,5.80
2019-06-10T02:36:09.460Z,4.77
2019-06-10T02:39:07.742Z,6.50
2019-06-10T02:42:17.931Z,7.27
2019-06-10T02:45:18.330Z,7.37
2019-06-10T02:48:17.938Z,7.27
2019-06-10T02:51:15.795Z,9.30
2019-06-10T02:54:16.171Z,7.03
2019-06-10T02:57:14.629Z,8.40
2019-06-10T03:00:20.885Z,9.70
2019-06-10T03:03:14.127Z,10.30
2019-06-10T03:06:14.425Z,10.83
2019-06-10T03:09:14.147Z,10.30
2019-06-10T03:12:12.277Z,10.67
2019-06-10T03:15:12.605Z,10.57
2019-06-10T03:18:12.824Z,10.37
2019-06-10T03:21:12.245Z,11.43
2019-06-10T03:24:09.859Z,10.30
2019-06-10T03:27:08.018Z,11.57
2019-06-10T03:30:15.774Z,10.27
2019-06-10T03:33:05.744Z,9.53
2019-06-10T03:36:03.804Z,9.03
2019-06-10T03:39:02.640Z,9.43
2019-06-10T03:42:02.255Z,9.40
2019-06-10T03:45:00.412Z,9.53
2019-06-10T03:47:58.184Z,9.67
2019-06-10T03:50:56.444Z,9.63
2019-06-10T04:17:24.102Z,10.33
2019-06-10T04:20:27.286Z,11.20
2019-06-10T04:23:25.803Z,11.27
2019-06-10T04:26:28.096Z,10.60
2019-06-10T04:29:27.716Z,10.70
2019-06-10T04:32:27.812Z,11.17
2019-06-10T04:35:29.127Z,10.90
2019-06-10T04:38:29.081Z,10.97
2019-06-10T04:41:29.201Z,9.60
2019-06-10T04:44:29.389Z,9.50
2019-06-10T04:47:29.651Z,8.73
2019-06-10T04:50:39.096Z,10.30
2019-06-10T04:53:32.610Z,9.07
2019-06-10T04:56:33.291Z,8.83
2019-06-10T04:59:33.605Z,9.03
2019-06-10T05:02:33.171Z,8.60
2019-06-10T05:05:32.910Z,8.13
2019-06-10T05:08:33.814Z,8.97
2019-06-10T05:11:33.586Z,9.13
2019-06-10T05:14:33.587Z,8.50
2019-06-10T05:17:34.290Z,8.83
2019-06-10T05:20:51.184Z,9.50
2019-06-10T05:23:34.881Z,8.23
2019-06-10T05:26:34.378Z,8.47
2019-06-10T05:29:34.251Z,8.90
2019-06-10T05:32:33.776Z,10.13
2019-06-10T05:35:34.002Z,8.60
2019-06-10T05:38:35.362Z,8.57
2019-06-10T05:41:35.193Z,7.63
2019-06-10T05:44:34.751Z,9.47
2019-06-10T05:47:35.991Z,8.57
2019-06-10T05:50:35.194Z,7.70
2019-06-10T05:53:35.478Z,10.67
2019-06-10T05:56:35.704Z,11.20
2019-06-10T05:59:36.003Z,10.33
2019-06-10T06:02:35.538Z,9.53
2019-06-10T06:05:36.077Z,9.87
2019-06-10T06:08:35.606Z,10.83
2019-06-10T06:11:35.365Z,11.40
2019-06-10T06:14:36.069Z,11.03
2019-06-10T06:17:35.495Z,10.47
2019-06-10T06:20:36.004Z,8.50
2019-06-10T06:23:37.021Z,11.17
2019-06-10T06:26:38.070Z,10.90
2019-06-10T06:29:38.291Z,10.03
2019-06-10T06:32:38.204Z,10.77
2019-06-10T06:35:42.747Z,8.70
2019-06-10T06:38:38.450Z,9.93
2019-06-10T06:41:38.971Z,8.10
2019-06-10T06:44:39.491Z,8.17
2019-06-10T06:47:39.160Z,7.43
2019-06-10T06:50:59.141Z,7.50
2019-06-10T06:53:46.293Z,7.00
2019-06-10T06:56:41.200Z,6.47
2019-06-10T06:59:43.048Z,6.30
2019-06-10T07:02:43.586Z,7.20
2019-06-10T07:05:43.418Z,7.73
2019-06-10T07:08:51.765Z,7.80
2019-06-10T07:11:45.564Z,7.93
2019-06-10T07:14:46.247Z,7.37
2019-06-10T07:17:46.009Z,7.20
2019-06-10T07:20:45.845Z,7.47
2019-06-10T07:23:47.066Z,8.90
2019-06-10T07:26:53.977Z,8.47
2019-06-10T07:29:52.771Z,9.00
2019-06-10T07:32:52.803Z,7.57
2019-06-10T07:35:52.842Z,8.13
2019-06-10T07:38:54.031Z,7.43
2019-06-10T07:41:53.695Z,7.00
2019-06-10T07:44:53.232Z,6.87
2019-06-10T07:47:52.886Z,7.53
2019-06-10T07:50:53.223Z,7.03
2019-06-10T07:53:52.836Z,5.57
2019-06-10T07:56:53.706Z,5.80
2019-06-10T07:59:52.829Z,5.90
2019-06-10T08:02:53.047Z,5.90
2019-06-10T08:05:52.532Z,6.40
2019-06-10T08:08:53.127Z,5.50
2019-06-10T08:11:53.232Z,5.40
2019-06-10T08:14:53.253Z,5.33
2019-06-10T08:17:53.108Z,5.17
2019-06-10T08:20:52.825Z,5.27
2019-06-10T08:23:54.275Z,5.37
2019-06-10T08:26:53.757Z,5.27
2019-06-10T08:30:13.532Z,5.33
2019-06-10T08:32:56.570Z,5.50
2019-06-10T08:35:59.875Z,5.47
2019-06-10T08:38:55.540Z,5.57
2019-06-10T08:41:55.314Z,5.27
2019-06-10T08:44:54.090Z,5.63
2019-06-10T08:47:54.237Z,6.23
2019-06-10T08:50:53.497Z,5.40
2019-06-10T08:53:53.327Z,6.20
2019-06-10T08:56:54.159Z,5.40
2019-06-10T08:59:53.364Z,5.73
2019-06-10T09:02:53.955Z,4.83
2019-06-10T09:05:54.513Z,5.33
2019-06-10T09:08:54.424Z,5.20
2019-06-10T09:11:54.452Z,5.70
2019-06-10T09:14:53.190Z,5.67
2019-06-10T09:17:55.271Z,5.00
2019-06-10T09:20:55.245Z,5.67
2019-06-10T09:23:59.438Z,5.00
2019-06-10T09:26:54.676Z,4.67
2019-06-10T09:29:55.175Z,5.80
2019-06-10T09:32:53.680Z,5.83
2019-06-10T09:35:52.811Z,6.10
2019-06-10T09:38:54.852Z,6.00
2019-06-10T09:42:00.708Z,7.00
2019-06-10T09:44:52.471Z,6.77
2019-06-10T09:47:58.379Z,6.63
2019-06-10T09:50:57.553Z,6.50
2019-06-10T09:54:02.094Z,5.67
2019-06-10T09:56:54.488Z,5.97
2019-06-10T09:59:55.741Z,5.87
2019-06-10T10:02:52.072Z,6.67
2019-06-10T10:05:59.399Z,5.80
2019-06-10T10:08:52.657Z,5.67
2019-06-10T10:11:50.229Z,5.40
2019-06-10T10:14:50.228Z,4.73
2019-06-10T10:17:49.497Z,5.10
2019-06-10T10:20:49.764Z,4.20
2019-06-10T10:23:54.903Z,3.80
2019-06-10T10:26:49.069Z,4.40
2019-06-10T10:29:48.881Z,4.33
2019-06-10T10:32:49.145Z,4.03
2019-06-10T10:35:47.623Z,3.57
2019-06-10T10:38:46.795Z,4.53
2019-06-10T10:41:46.481Z,3.60
2019-06-10T10:44:46.647Z,5.07
2019-06-10T10:47:44.893Z,4.50
2019-06-10T10:50:44.223Z,3.83
2019-06-10T10:53:48.223Z,4.00
2019-06-10T10:56:44.620Z,4.10
2019-06-10T10:59:43.546Z,4.03
2019-06-10T11:02:43.158Z,3.57
2019-06-10T11:05:41.493Z,4.20
2019-06-10T11:08:39.266Z,4.43
2019-06-10T11:11:39.243Z,4.93
2019-06-10T11:14:37.475Z,4.00
2019-06-10T11:17:35.780Z,4.50
2019-06-10T11:20:33.836Z,4.40
2019-06-10T11:23:33.700Z,5.97
2019-06-10T11:26:32.970Z,5.40
2019-06-10T11:29:32.958Z,5.30
2019-06-10T11:32:32.761Z,5.03
2019-06-10T11:35:30.630Z,5.97
2019-06-10T11:38:29.052Z,6.30
2019-06-10T11:41:27.113Z,5.57
2019-06-10T11:44:25.380Z,6.00
2019-06-10T11:47:23.353Z,6.67
2019-06-10T11:50:23.242Z,6.67
2019-06-10T11:53:22.906Z,6.83
2019-06-10T11:56:22.305Z,6.67
2019-06-10T11:59:20.060Z,6.90
2019-06-10T12:02:18.043Z,7.20
2019-06-10T12:05:20.365Z,7.70
2019-06-10T12:08:17.690Z,7.43
2019-06-10T12:11:15.753Z,7.23
2019-06-10T12:14:13.696Z,6.77
2019-06-10T12:17:25.102Z,6.93
2019-06-10T12:20:13.245Z,7.97
2019-06-10T12:23:12.717Z,7.43
2019-06-10T12:26:10.701Z,9.03
2019-06-10T12:29:08.892Z,8.87
2019-06-10T12:32:07.738Z,7.60
2019-06-10T12:35:06.007Z,8.87
2019-06-10T12:38:06.098Z,7.40
2019-06-10T12:41:08.580Z,7.50
2019-06-10T12:44:04.286Z,7.30
2019-06-10T12:47:07.461Z,8.10
2019-06-10T12:50:04.103Z,7.20
2019-06-10T12:53:05.023Z,7.00
2019-06-10T12:56:07.970Z,7.20
2019-06-10T12:59:06.746Z,7.20
2019-06-10T13:02:11.313Z,6.83
2019-06-10T13:05:03.136Z,8.00
2019-06-10T13:08:02.823Z,7.73
2019-06-10T13:11:00.232Z,8.27
2019-06-10T13:14:02.838Z,7.00
2019-06-10T13:17:02.536Z,8.60
2019-06-10T13:20:01.238Z,7.13
2019-06-10T13:23:09.461Z,8.20
2019-06-10T13:26:03.290Z,7.10
2019-06-10T13:28:59.120Z,6.90
2019-06-10T13:31:58.049Z,7.80
2019-06-10T13:34:56.469Z,7.97
2019-06-10T13:37:54.939Z,7.90
2019-06-10T13:40:53.512Z,7.10
2019-06-10T13:43:52.803Z,6.33
2019-06-10T13:46:53.192Z,7.27
2019-06-10T13:49:53.262Z,7.10
2019-06-10T13:52:52.170Z,7.27
2019-06-10T13:55:56.981Z,6.80
2019-06-10T13:58:52.281Z,7.07
2019-06-10T14:01:50.166Z,6.73
2019-06-10T14:04:48.193Z,6.40
2019-06-10T14:07:46.128Z,6.17
2019-06-10T14:10:44.204Z,5.17
2019-06-10T14:13:43.246Z,6.03
2019-06-10T14:16:42.581Z,5.77
2019-06-10T14:19:40.267Z,5.67
2019-06-10T14:22:38.316Z,5.83
2019-06-10T14:25:36.616Z,5.70
2019-06-10T14:28:40.655Z,5.07
2019-06-10T14:31:43.447Z,6.40
2019-06-10T14:34:34.653Z,5.83
2019-06-10T14:37:38.905Z,5.70
2019-06-10T14:40:32.602Z,5.53
2019-06-10T14:43:33.004Z,5.80
2019-06-10T14:46:30.036Z,6.60
2019-06-10T14:49:28.016Z,6.07
2019-06-10T14:52:26.148Z,5.83
2019-06-10T14:55:24.180Z,5.53
2019-06-10T14:58:23.202Z,6.00
2019-06-10T15:01:25.283Z,6.40
2019-06-10T15:04:22.480Z,7.20
2019-06-10T15:07:23.461Z,6.50
2019-06-10T15:10:23.119Z,6.37
2019-06-10T15:13:20.149Z,6.50
2019-06-10T15:16:21.026Z,7.60
2019-06-10T15:19:25.276Z,6.70
2019-06-10T15:22:17.964Z,8.20
2019-06-10T15:25:17.716Z,7.87
2019-06-10T15:28:17.606Z,9.00
2019-06-10T15:31:16.785Z,7.80
2019-06-10T15:34:16.718Z,2.73
2019-06-10T15:37:17.126Z,2.20
2019-06-10T15:40:16.643Z,2.60
2019-06-10T15:43:15.822Z,1.60
2019-06-10T15:46:15.544Z,1.00
2019-06-10T15:49:16.384Z,0.80
2019-06-10T15:52:17.190Z,0.97
2019-06-10T15:55:33.625Z,1.10
2019-06-10T15:58:15.579Z,1.10
2019-06-10T16:01:16.666Z,1.20
2019-06-10T16:04:15.530Z,1.10
2019-06-10T16:07:15.712Z,2.03
2019-06-10T16:10:18.879Z,3.20
2019-06-10T16:13:14.420Z,3.57
2019-06-10T16:16:12.847Z,4.93
2019-06-10T16:19:12.958Z,5.10
2019-06-10T16:22:12.786Z,4.43
2019-06-10T16:25:12.696Z,6.60
2019-06-10T16:28:12.633Z,7.17
2019-06-10T16:31:09.952Z,6.30
2019-06-10T16:34:07.656Z,9.20
2019-06-10T16:37:12.912Z,6.60
2019-06-10T16:40:12.244Z,8.03
2019-06-10T16:43:10.079Z,7.70
2019-06-10T16:46:07.787Z,8.60
2019-06-10T16:52:45.446Z,7.97
2019-06-10T16:55:43.226Z,8.23
2019-06-10T16:58:43.189Z,9.10
2019-06-10T17:01:42.741Z,7.77
2019-06-10T17:04:43.526Z,6.77
2019-06-10T17:07:43.381Z,6.73
2019-06-10T17:10:40.134Z,5.70
2019-06-10T17:13:38.347Z,5.63
2019-06-10T17:16:36.048Z,5.50
2019-06-10T17:19:34.320Z,5.90
2019-06-10T17:22:33.435Z,6.53
2019-06-10T17:25:33.718Z,5.17
2019-06-10T17:28:35.889Z,4.90
2019-06-10T17:31:32.841Z,5.50
2019-06-10T17:34:33.622Z,5.60
2019-06-10T17:37:33.517Z,4.57
2019-06-10T17:40:31.656Z,4.63
2019-06-10T17:43:32.421Z,4.50
2019-06-10T17:46:30.671Z,5.20
2019-06-10T17:49:30.348Z,4.13
2019-06-10T17:52:30.096Z,4.97
2019-06-10T17:55:29.752Z,4.93
2019-06-10T17:58:39.266Z,5.33
2019-06-10T18:01:29.061Z,4.80
2019-06-10T18:04:27.365Z,5.27
2019-06-10T18:07:25.662Z,5.47
2019-06-10T18:10:24.016Z,10.73
2019-06-10T18:13:23.194Z,6.53
2019-06-10T18:16:22.828Z,5.50
2019-06-10T18:19:22.281Z,6.30
2019-06-10T18:22:22.761Z,6.73
2019-06-10T18:25:22.776Z,6.53
2019-06-10T18:28:22.361Z,5.93
2019-06-10T18:31:19.445Z,7.93
2019-06-10T18:34:18.095Z,7.10
2019-06-10T18:37:16.059Z,9.20
2019-06-10T18:40:14.687Z,7.73
2019-06-10T18:43:12.892Z,7.37
2019-06-10T18:46:12.673Z,9.60
2019-06-10T18:49:13.071Z,15.27
2019-06-10T18:52:12.520Z,12.40
2019-06-10T18:55:12.267Z,7.97
2019-06-10T18:58:10.351Z,8.40
2019-06-10T19:01:09.038Z,8.77
2019-06-10T19:04:07.028Z,8.90
2019-06-10T19:07:05.181Z,9.37
2019-06-10T19:10:02.942Z,8.93
2019-06-10T19:13:02.485Z,8.60
2019-06-10T19:16:02.404Z,9.70
2019-06-10T19:19:02.672Z,10.13
2019-06-10T19:22:08.586Z,9.37
2019-06-10T19:24:59.495Z,8.07
2019-06-10T19:27:57.918Z,8.83
2019-06-10T19:30:55.615Z,8.30
2019-06-10T19:33:53.840Z,9.40
2019-06-10T19:36:52.282Z,9.03
2019-06-10T19:39:53.970Z,9.37
2019-06-10T19:42:52.516Z,9.10
2019-06-10T19:45:52.795Z,11.00
2019-06-10T19:48:58.107Z,8.57
2019-06-10T19:51:52.460Z,8.50
2019-06-10T19:54:49.398Z,8.57
2019-06-10T19:57:47.471Z,8.67
2019-06-10T20:00:50.957Z,7.93
2019-06-10T20:03:47.066Z,9.60
2019-06-10T20:06:50.325Z,80.20
2019-06-10T20:09:46.277Z,26.30
2019-06-10T20:12:46.665Z,11.33
2019-06-10T20:15:45.109Z,8.83
2019-06-10T20:18:47.582Z,8.07
2019-06-10T20:21:46.455Z,7.60
2019-06-10T20:24:45.348Z,7.00
2019-06-10T20:27:44.301Z,8.13
2019-06-10T20:30:45.824Z,7.83
2019-06-10T20:33:43.112Z,8.63
2019-06-10T20:36:43.784Z,8.07
2019-06-10T20:39:43.209Z,8.70
2019-06-10T20:42:42.210Z,10.33
2019-06-10T20:45:41.576Z,9.73
2019-06-10T20:48:41.404Z,9.00
2019-06-10T20:51:50.210Z,13.30
2019-06-10T20:54:40.130Z,11.00
2019-06-10T20:57:52.069Z,12.57
2019-06-10T21:00:44.155Z,10.63
2019-06-10T21:03:39.007Z,27.70
2019-06-10T21:06:37.601Z,16.10
2019-06-10T21:09:36.671Z,16.70
2019-06-10T21:12:34.795Z,8.60
2019-06-10T21:15:33.347Z,10.20
2019-06-10T21:18:32.930Z,17.77
2019-06-10T21:21:32.667Z,9.90
2019-06-10T21:24:32.372Z,9.67
2019-06-10T21:27:32.840Z,9.40
2019-06-10T21:30:38.449Z,10.97
2019-06-10T21:33:30.389Z,11.37
2019-06-10T21:36:28.496Z,12.30
2019-06-10T21:39:26.199Z,11.43
2019-06-10T21:42:24.449Z,11.90
2019-06-10T21:45:22.930Z,12.37
2019-06-10T21:48:22.994Z,11.37
2019-06-10T21:51:22.756Z,11.27
2019-06-10T21:54:22.477Z,11.67
2019-06-10T21:57:22.105Z,12.90
2019-06-10T22:00:23.429Z,12.90
2019-06-10T22:03:23.406Z,14.37
2019-06-10T22:06:22.591Z,13.27
2019-06-10T22:09:20.380Z,13.97
2019-06-10T22:12:18.136Z,14.50
2019-06-10T22:15:15.915Z,15.17
2019-06-10T22:18:13.945Z,16.30
2019-06-10T22:21:14.639Z,17.80
2019-06-10T22:24:12.553Z,16.57
2019-06-10T22:27:12.872Z,17.20
2019-06-10T22:30:11.503Z,16.77
2019-06-10T22:33:12.201Z,16.87
2019-06-10T22:36:12.751Z,17.30
2019-06-10T22:39:12.360Z,18.40
2019-06-10T22:42:09.120Z,19.07
2019-06-10T22:45:07.187Z,18.43
2019-06-10T22:48:05.288Z,19.10
2019-06-10T22:51:03.045Z,19.60
2019-06-10T22:54:03.503Z,22.00
2019-06-10T22:57:02.715Z,20.37
2019-06-10T23:00:02.919Z,22.90
2019-06-10T23:03:02.572Z,22.13
2019-06-10T23:06:02.476Z,21.20
2019-06-10T23:08:59.491Z,22.20
2019-06-10T23:11:59.145Z,21.90
2019-06-10T23:14:57.789Z,21.40
2019-06-10T23:17:57.473Z,25.10
2019-06-10T23:20:57.870Z,24.97
2019-06-10T23:23:57.056Z,23.87
2019-06-10T23:26:55.896Z,27.80
2019-06-10T23:29:55.416Z,27.30
2019-06-10T23:32:56.053Z,28.53
2019-06-10T23:35:54.514Z,28.93
2019-06-10T23:38:53.300Z,28.60
2019-06-10T23:41:53.622Z,26.30
2019-06-10T23:44:51.346Z,27.53
2019-06-10T23:47:49.307Z,28.40
2019-06-10T23:50:47.256Z,31.50
2019-06-10T23:53:45.222Z,29.70
2019-06-10T23:56:43.501Z,29.40
2019-06-10T23:59:42.768Z,28.97
